createdAt,value
2022-12-20T00:08:02.503Z,88.5
2022-12-20T00:20:02.449Z,84.1
2022-12-20T00:32:02.340Z,93.8
2022-12-20T00:44:02.314Z,92.4
2022-12-20T00:56:02.388Z,90.9
2022-12-20T01:08:02.211Z,90.5
2022-12-20T01:20:02.285Z,95.2
2022-12-20T01:32:02.458Z,92.5
2022-12-20T01:44:02.347Z,92.0
2022-12-20T01:56:02.254Z,91.5
2022-12-20T02:08:02.212Z,91.7
2022-12-20T02:20:02.214Z,91.7
2022-12-20T02:32:02.140Z,91.3
2022-12-20T02:44:02.288Z,91.5
2022-12-20T02:56:02.186Z,91.2
2022-12-20T03:08:02.279Z,91.1
2022-12-20T03:20:02.274Z,91.3
2022-12-20T03:32:02.239Z,87.3
2022-12-20T03:44:02.337Z,91.4
2022-12-20T03:56:02.134Z,92.4
2022-12-20T04:08:02.231Z,93.7
2022-12-20T04:20:02.131Z,94.9
2022-12-20T04:32:02.244Z,94.8
2022-12-20T04:44:02.125Z,95.4
2022-12-20T04:56:02.103Z,94.8
2022-12-20T05:08:02.142Z,95.6
2022-12-20T05:20:02.191Z,95.9
2022-12-20T05:32:02.149Z,96.1
2022-12-20T05:44:02.098Z,95.8
2022-12-20T05:56:02.179Z,96.1
2022-12-20T06:08:02.172Z,96.1
2022-12-20T06:20:02.109Z,96.4
2022-12-20T06:32:02.179Z,95.6
2022-12-20T06:44:02.283Z,95.8
2022-12-20T06:56:02.105Z,95.6
2022-12-20T07:08:02.113Z,96.0
2022-12-20T07:20:06.268Z,95.7
2022-12-20T07:32:02.248Z,95.4
2022-12-20T07:44:03.026Z,96.2
2022-12-20T07:56:02.106Z,96.5
2022-12-20T08:08:02.111Z,95.7
2022-12-20T08:20:02.133Z,95.5
2022-12-20T08:32:02.135Z,95.2
2022-12-20T08:44:02.113Z,94.8
2022-12-20T08:56:02.103Z,94.3
2022-12-20T09:08:02.110Z,93.3
2022-12-20T09:20:02.099Z,93.9
2022-12-20T09:32:02.103Z,94.3
2022-12-20T09:44:02.428Z,94.2
2022-12-20T09:56:02.190Z,96.1
2022-12-20T10:08:02.111Z,94.3
2022-12-20T10:20:02.125Z,90.3
2022-12-20T10:32:02.116Z,88.4
2022-12-20T10:44:02.226Z,87.6
2022-12-20T10:56:02.111Z,86.4
2022-12-20T11:08:34.842Z,85.9
2022-12-20T11:20:02.097Z,85.3
2022-12-20T11:32:02.167Z,84.7
2022-12-20T11:44:24.400Z,84.0
2022-12-20T11:56:02.134Z,83.8
2022-12-20T12:08:02.143Z,83.7
2022-12-20T12:20:02.263Z,83.1
2022-12-20T12:32:02.225Z,83.2
2022-12-20T12:44:02.171Z,83.1
2022-12-20T12:56:26.466Z,82.3
2022-12-20T13:08:02.103Z,81.5
2022-12-20T13:20:02.096Z,81.6
2022-12-20T13:32:02.120Z,81.6
2022-12-20T13:44:02.122Z,81.7
2022-12-20T13:56:02.232Z,81.3
2022-12-20T14:08:02.116Z,80.7
2022-12-20T14:20:02.133Z,81.2
2022-12-20T14:32:02.099Z,81.8
2022-12-20T14:44:02.104Z,81.4
2022-12-20T14:56:02.103Z,81.2
2022-12-20T15:08:02.116Z,81.4
2022-12-20T15:20:02.426Z,81.4
2022-12-20T15:32:02.177Z,81.4
2022-12-20T15:44:02.108Z,81.6
2022-12-20T15:56:02.109Z,81.8
2022-12-20T16:08:02.117Z,81.6
2022-12-20T16:20:02.127Z,81.4
2022-12-20T16:32:02.120Z,81.4
2022-12-20T16:44:02.602Z,81.7
2022-12-20T16:56:02.102Z,81.3
2022-12-20T17:08:02.110Z,81.3
2022-12-20T17:20:02.213Z,81.1
2022-12-20T17:32:02.181Z,80.6
2022-12-20T17:44:02.102Z,81.5
2022-12-20T17:56:02.115Z,82.5
2022-12-20T18:08:02.123Z,83.0
2022-12-20T18:20:02.210Z,84.4
2022-12-20T18:32:02.172Z,85.0
2022-12-20T18:44:02.102Z,85.3
2022-12-20T18:56:02.241Z,86.0
2022-12-20T19:08:02.113Z,85.2
2022-12-20T19:20:02.107Z,85.1
2022-12-20T19:32:02.104Z,85.5
2022-12-20T19:44:02.197Z,85.8
2022-12-20T19:56:02.188Z,87.1
2022-12-20T20:08:02.141Z,87.2
2022-12-20T20:20:02.105Z,88.0
2022-12-20T20:32:02.103Z,89.8
2022-12-20T20:44:02.099Z,91.4
2022-12-20T20:56:02.144Z,92.5
2022-12-20T21:08:02.111Z,93.2
2022-12-20T21:20:02.120Z,93.4
2022-12-20T21:32:02.101Z,92.9
2022-12-20T21:44:02.144Z,93.0
2022-12-20T21:56:02.188Z,94.1
2022-12-20T22:08:02.104Z,94.3
2022-12-20T22:20:02.117Z,94.2
2022-12-20T22:32:02.176Z,94.0
2022-12-20T22:44:02.094Z,94.0
2022-12-20T22:56:02.097Z,94.0
2022-12-20T23:08:02.271Z,94.2
2022-12-20T23:20:02.108Z,94.3
2022-12-20T23:32:02.208Z,94.3
2022-12-20T23:44:02.095Z,94.7
2022-12-20T23:56:02.101Z,94.5
